Time,TemperatureF,DewpointF,PressureIn,WindDirection,WindDirectionDegrees,WindSpeedMPH,WindSpeedGustMPH,Humidity,HourlyPrecipIn,Conditions,Clouds,dailyrainin,SoftwareType,DateUTC
2013-11-22 00:00:00,39.2,32.3,30.33,North,0,0.0,0.0,77,-99.99,,,-99.99,PWS SA v1.10,2013-11-22 05:00:00,
2013-11-22 00:02:00,39.4,32.3,30.32,North,0,0.0,0.0,76,-99.99,,,-99.99,PWS SA v1.10,2013-11-22 05:02:00,
2013-11-22 00:04:00,39.5,32.5,30.33,North,0,0.0,0.0,76,-99.99,,,-99.99,PWS SA v1.10,2013-11-22 05:04:00,
2013-11-22 00:06:00,39.5,32.4,30.32,North,0,0.0,1.0,76,-99.99,,,-99.99,PWS SA v1.10,2013-11-22 05:06:00,
2013-11-22 00:08:00,39.7,32.6,30.32,North,0,0.0,1.0,76,-99.99,,,-99.99,PWS SA v1.10,2013-11-22 05:08:00,
2013-11-22 00:14:00,39.8,32.6,30.32,North,0,0.0,1.0,76,-99.99,,,-99.99,PWS SA v1.10,2013-11-22 05:14:00,
2013-11-22 00:18:00,39.9,32.7,30.32,WSW,250,1.7,3.0,76,-99.99,,,-99.99,PWS SA v1.10,2013-11-22 05:18:00,
2013-11-22 00:24:00,40.2,32.8,30.32,North,0,0.0,3.0,75,-99.99,,,-99.99,PWS SA v1.10,2013-11-22 05:24:00,
2013-11-22 00:30:00,40.3,33.1,30.31,North,0,0.0,3.0,75,-99.99,,,-99.99,PWS SA v1.10,2013-11-22 05:30:00,
2013-11-22 00:36:00,40.2,33.2,30.31,North,0,0.0,0.0,76,-99.99,,,-99.99,PWS SA v1.10,2013-11-22 05:36:00,
2013-11-22 00:42:00,40.0,33.1,30.31,North,0,0.0,0.0,76,-99.99,,,-99.99,PWS SA v1.10,2013-11-22 05:42:00,
2013-11-22 00:48:00,39.9,33.1,30.30,WSW,249,3.4,3.4,77,-99.99,,,-99.99,PWS SA v1.10,2013-11-22 05:48:00,
2013-11-22 00:52:00,39.9,33.4,30.31,North,0,0.0,3.0,77,-99.99,,,-99.99,PWS SA v1.10,2013-11-22 05:52:00,
2013-11-22 00:58:00,39.8,33.5,30.30,North,0,0.0,3.0,77,-99.99,,,-99.99,PWS SA v1.10,2013-11-22 05:58:00,
2013-11-22 01:04:00,39.7,33.3,30.30,North,0,0.0,0.0,78,-99.99,,,-99.99,PWS SA v1.10,2013-11-22 06:04:00,
2013-11-22 01:10:00,39.8,33.6,30.30,WSW,248,1.7,1.7,78,-99.99,,,-99.99,PWS SA v1.10,2013-11-22 06:10:00,
2013-11-22 01:16:00,39.8,33.9,30.30,North,0,0.0,1.0,79,-99.99,,,-99.99,PWS SA v1.10,2013-11-22 06:16:00,
2013-11-22 01:22:00,39.8,33.8,30.30,North,0,0.0,1.0,79,-99.99,,,-99.99,PWS SA v1.10,2013-11-22 06:22:00,
2013-11-22 01:28:00,39.9,34.2,30.30,North,0,0.0,0.0,79,-99.99,,,-99.99,PWS SA v1.10,2013-11-22 06:28:00,
2013-11-22 01:34:00,40.2,34.2,30.30,North,0,0.0,0.0,79,-99.99,,,-99.99,PWS SA v1.10,2013-11-22 06:34:00,
2013-11-22 01:40:00,40.2,34.4,30.30,North,0,0.0,0.0,80,-99.99,,,-99.99,PWS SA v1.10,2013-11-22 06:40:00,
2013-11-22 01:46:00,40.2,34.6,30.29,North,0,0.0,0.0,80,-99.99,,,-99.99,PWS SA v1.10,2013-11-22 06:46:00,
2013-11-22 01:52:00,40.4,34.9,30.29,North,0,0.0,0.0,80,-99.99,,,-99.99,PWS SA v1.10,2013-11-22 06:52:00,
2013-11-22 01:58:00,40.7,35.0,30.29,North,0,0.0,0.0,80,-99.99,,,-99.99,PWS SA v1.10,2013-11-22 06:58:00,
2013-11-22 02:04:00,40.8,35.1,30.29,North,0,0.0,0.0,80,-99.99,,,-99.99,PWS SA v1.10,2013-11-22 07:04:00,
2013-11-22 02:10:00,40.9,35.2,30.28,North,0,0.0,0.0,80,-99.99,,,-99.99,PWS SA v1.10,2013-11-22 07:10:00,
2013-11-22 02:16:00,41.1,35.3,30.28,North,0,0.0,0.0,80,-99.99,,,-99.99,PWS SA v1.10,2013-11-22 07:16:00,
2013-11-22 02:22:00,41.2,35.5,30.28,North,0,0.0,0.0,80,-99.99,,,-99.99,PWS SA v1.10,2013-11-22 07:22:00,
2013-11-22 02:28:00,41.2,35.5,30.28,North,0,0.0,0.0,80,-99.99,,,-99.99,PWS SA v1.10,2013-11-22 07:28:00,
2013-11-22 02:34:00,41.3,35.6,30.28,North,0,0.0,0.0,80,-99.99,,,-99.99,PWS SA v1.10,2013-11-22 07:34:00,
2013-11-22 02:40:00,41.4,35.6,30.28,North,0,0.0,1.0,80,-99.99,,,-99.99,PWS SA v1.10,2013-11-22 07:40:00,
2013-11-22 02:46:00,41.5,35.9,30.28,North,0,0.0,1.0,80,-99.99,,,-99.99,PWS SA v1.10,2013-11-22 07:46:00,
2013-11-22 02:52:00,41.5,36.0,30.27,North,0,0.0,1.0,80,-99.99,,,-99.99,PWS SA v1.10,2013-11-22 07:52:00,
2013-11-22 02:58:00,41.7,36.2,30.27,North,0,0.0,0.0,80,-99.99,,,-99.99,PWS SA v1.10,2013-11-22 07:58:00,
2013-11-22 03:04:00,41.9,36.1,30.27,North,0,0.0,0.0,80,-99.99,,,-99.99,PWS SA v1.10,2013-11-22 08:04:00,
2013-11-22 03:10:00,41.9,36.1,30.27,North,0,0.0,0.0,80,-99.99,,,-99.99,PWS SA v1.10,2013-11-22 08:10:00,
2013-11-22 03:16:00,41.9,36.0,30.26,North,0,0.0,0.0,80,-99.99,,,-99.99,PWS SA v1.10,2013-11-22 08:16:00,
2013-11-22 03:22:00,41.8,36.1,30.27,North,0,0.0,0.0,80,-99.99,,,-99.99,PWS SA v1.10,2013-11-22 08:22:00,
2013-11-22 03:28:00,41.9,36.5,30.26,North,0,0.0,0.0,81,-99.99,,,-99.99,PWS SA v1.10,2013-11-22 08:28:00,
2013-11-22 03:34:00,41.9,36.6,30.26,North,0,0.0,0.0,81,-99.99,,,-99.99,PWS SA v1.10,2013-11-22 08:34:00,
2013-11-22 03:40:00,42.0,36.7,30.26,North,0,0.0,0.0,81,-99.99,,,-99.99,PWS SA v1.10,2013-11-22 08:40:00,
2013-11-22 03:46:00,42.1,36.7,30.26,North,0,0.0,0.0,81,-99.99,,,-99.99,PWS SA v1.10,2013-11-22 08:46:00,
2013-11-22 03:52:00,42.1,37.1,30.26,North,0,0.0,0.0,82,-99.99,,,-99.99,PWS SA v1.10,2013-11-22 08:52:00,
2013-11-22 03:58:00,42.2,37.4,30.26,North,0,0.0,1.0,83,-99.99,,,-99.99,PWS SA v1.10,2013-11-22 08:58:00,
2013-11-22 04:04:00,42.2,37.5,30.25,North,0,0.0,1.0,83,-99.99,,,-99.99,PWS SA v1.10,2013-11-22 09:04:00,
2013-11-22 04:10:00,42.2,37.7,30.25,North,0,0.0,0.0,84,-99.99,,,-99.99,PWS SA v1.10,2013-11-22 09:10:00,
2013-11-22 04:16:00,42.2,37.7,30.25,North,0,0.0,0.0,84,-99.99,,,-99.99,PWS SA v1.10,2013-11-22 09:16:00,
2013-11-22 04:22:00,42.3,38.0,30.25,North,0,0.0,0.0,84,-99.99,,,-99.99,PWS SA v1.10,2013-11-22 09:22:00,
2013-11-22 04:28:00,42.3,38.1,30.24,North,0,0.0,0.0,84,-99.99,,,-99.99,PWS SA v1.10,2013-11-22 09:28:00,
2013-11-22 04:34:00,42.2,37.8,30.23,North,0,0.0,0.0,84,-99.99,,,-99.99,PWS SA v1.10,2013-11-22 09:34:00,
2013-11-22 04:42:00,42.2,38.1,30.23,North,0,0.0,0.0,85,-99.99,,,-99.99,PWS SA v1.10,2013-11-22 09:42:00,
2013-11-22 04:48:00,42.3,38.0,30.22,North,0,0.0,0.0,85,-99.99,,,-99.99,PWS SA v1.10,2013-11-22 09:48:00,
2013-11-22 04:54:00,42.2,38.1,30.22,North,0,0.0,0.0,85,-99.99,,,-99.99,PWS SA v1.10,2013-11-22 09:54:00,
2013-11-22 05:00:00,42.3,38.3,30.22,North,0,0.0,0.0,85,-99.99,,,-99.99,PWS SA v1.10,2013-11-22 10:00:00,
2013-11-22 05:06:00,42.3,38.1,30.22,North,0,0.0,0.0,85,-99.99,,,-99.99,PWS SA v1.10,2013-11-22 10:06:00,
2013-11-22 05:12:00,42.3,38.0,30.22,North,0,0.0,0.0,85,-99.99,,,-99.99,PWS SA v1.10,2013-11-22 10:12:00,
2013-11-22 05:18:00,42.2,38.1,30.22,North,0,0.0,0.0,85,-99.99,,,-99.99,PWS SA v1.10,2013-11-22 10:18:00,
2013-11-22 05:24:00,42.3,38.3,30.21,North,0,0.0,0.0,85,-99.99,,,-99.99,PWS SA v1.10,2013-11-22 10:24:00,
2013-11-22 05:30:00,42.3,38.3,30.22,North,0,0.0,0.0,85,-99.99,,,-99.99,PWS SA v1.10,2013-11-22 10:30:00,
2013-11-22 05:36:00,42.3,38.3,30.22,North,0,0.0,0.0,85,-99.99,,,-99.99,PWS SA v1.10,2013-11-22 10:36:00,
2013-11-22 05:42:00,42.5,38.5,30.21,North,0,0.0,0.0,87,-99.99,,,-99.99,PWS SA v1.10,2013-11-22 10:42:00,
2013-11-22 05:48:00,42.5,39.1,30.21,North,0,0.0,0.0,88,-99.99,,,-99.99,PWS SA v1.10,2013-11-22 10:48:00,
2013-11-22 05:54:00,42.5,39.1,30.21,North,0,0.0,0.0,88,-99.99,,,-99.99,PWS SA v1.10,2013-11-22 10:54:00,
2013-11-22 06:00:00,42.5,39.9,30.21,North,0,0.0,0.0,90,-99.99,,,-99.99,PWS SA v1.10,2013-11-22 11:00:00,
2013-11-22 06:06:00,42.3,39.7,30.20,North,0,0.0,0.0,91,-99.99,,,-99.99,PWS SA v1.10,2013-11-22 11:06:00,
2013-11-22 06:12:00,42.2,40.2,30.20,North,0,0.0,0.0,92,-99.99,,,-99.99,PWS SA v1.10,2013-11-22 11:12:00,
2013-11-22 06:18:00,42.2,40.3,30.20,North,0,0.0,0.0,93,-99.99,,,-99.99,PWS SA v1.10,2013-11-22 11:18:00,
2013-11-22 06:24:00,42.5,40.4,30.20,North,0,0.0,0.0,93,-99.99,,,-99.99,PWS SA v1.10,2013-11-22 11:24:00,
2013-11-22 06:30:00,42.3,40.6,30.21,North,0,0.0,0.0,93,-99.99,,,-99.99,PWS SA v1.10,2013-11-22 11:30:00,
2013-11-22 06:36:00,42.3,40.7,30.20,North,0,0.0,0.0,93,-99.99,,,-99.99,PWS SA v1.10,2013-11-22 11:36:00,
2013-11-22 06:42:00,42.5,40.8,30.21,North,0,0.0,0.0,93,-99.99,,,-99.99,PWS SA v1.10,2013-11-22 11:42:00,
2013-11-22 06:48:00,42.5,40.9,30.21,North,0,0.0,0.0,93,-99.99,,,-99.99,PWS SA v1.10,2013-11-22 11:48:00,
2013-11-22 06:54:00,42.6,40.8,30.20,North,0,0.0,0.0,93,-99.99,,,-99.99,PWS SA v1.10,2013-11-22 11:54:00,
2013-11-22 07:00:00,42.7,41.2,30.20,North,0,0.0,0.0,94,-99.99,,,-99.99,PWS SA v1.10,2013-11-22 12:00:00,
2013-11-22 07:06:00,42.7,41.3,30.20,North,0,0.0,0.0,95,-99.99,,,-99.99,PWS SA v1.10,2013-11-22 12:06:00,
2013-11-22 07:12:00,42.8,41.4,30.20,North,0,0.0,0.0,95,-99.99,,,-99.99,PWS SA v1.10,2013-11-22 12:12:00,
2013-11-22 07:18:00,42.9,41.7,30.19,North,0,0.0,0.0,95,-99.99,,,-99.99,PWS SA v1.10,2013-11-22 12:18:00,
2013-11-22 07:24:00,42.9,41.6,30.19,North,0,0.0,0.0,95,-99.99,,,-99.99,PWS SA v1.10,2013-11-22 12:24:00,
2013-11-22 07:30:00,42.8,41.8,30.19,North,0,0.0,0.0,96,-99.99,,,-99.99,PWS SA v1.10,2013-11-22 12:30:00,
2013-11-22 07:36:00,43.0,41.9,30.18,North,0,0.0,0.0,96,-99.99,,,-99.99,PWS SA v1.10,2013-11-22 12:36:00,
2013-11-22 07:42:00,42.9,41.9,30.18,North,0,0.0,0.0,96,-99.99,,,-99.99,PWS SA v1.10,2013-11-22 12:42:00,
2013-11-22 07:48:00,43.0,42.2,30.18,North,0,0.0,0.0,97,-99.99,,,-99.99,PWS SA v1.10,2013-11-22 12:48:00,
2013-11-22 07:54:00,43.0,42.0,30.17,North,0,0.0,0.0,96,-99.99,,,-99.99,PWS SA v1.10,2013-11-22 12:54:00,
2013-11-22 08:00:00,42.9,42.0,30.17,North,0,0.0,0.0,96,-99.99,,,-99.99,PWS SA v1.10,2013-11-22 13:00:00,
2013-11-22 08:06:00,43.0,42.2,30.18,North,0,0.0,0.0,96,-99.99,,,-99.99,PWS SA v1.10,2013-11-22 13:06:00,
2013-11-22 08:12:00,43.0,42.0,30.17,North,0,0.0,0.0,96,-99.99,,,-99.99,PWS SA v1.10,2013-11-22 13:12:00,
2013-11-22 08:18:00,43.1,42.3,30.17,North,0,0.0,0.0,96,-99.99,,,-99.99,PWS SA v1.10,2013-11-22 13:18:00,
2013-11-22 08:26:00,43.3,42.6,30.16,North,0,0.0,0.0,96,-99.99,,,-99.99,PWS SA v1.10,2013-11-22 13:26:00,
2013-11-22 08:34:00,43.6,43.0,30.16,North,0,0.0,0.0,96,-99.99,,,-99.99,PWS SA v1.10,2013-11-22 13:34:00,
2013-11-22 08:40:00,43.8,43.0,30.16,North,0,0.0,0.0,96,-99.99,,,-99.99,PWS SA v1.10,2013-11-22 13:40:00,
2013-11-22 08:46:00,43.9,43.1,30.15,North,0,0.0,0.0,96,-99.99,,,-99.99,PWS SA v1.10,2013-11-22 13:46:00,
2013-11-22 08:52:00,43.9,43.1,30.15,North,0,0.0,0.0,96,-99.99,,,-99.99,PWS SA v1.10,2013-11-22 13:52:00,
2013-11-22 08:58:00,44.1,43.4,30.14,North,0,0.0,0.0,97,-99.99,,,-99.99,PWS SA v1.10,2013-11-22 13:58:00,
2013-11-22 09:04:00,44.1,43.5,30.14,North,0,0.0,0.0,97,-99.99,,,-99.99,PWS SA v1.10,2013-11-22 14:04:00,
2013-11-22 09:10:00,44.4,43.6,30.14,North,0,0.0,0.0,97,-99.99,,,-99.99,PWS SA v1.10,2013-11-22 14:10:00,
2013-11-22 09:16:00,44.5,43.8,30.14,North,0,0.0,0.0,97,-99.99,,,-99.99,PWS SA v1.10,2013-11-22 14:16:00,
2013-11-22 09:24:00,44.6,44.1,30.14,North,0,0.0,0.0,98,-99.99,,,-99.99,PWS SA v1.10,2013-11-22 14:24:00,
2013-11-22 09:30:00,44.9,44.4,30.13,North,0,0.0,0.0,98,-99.99,,,-99.99,PWS SA v1.10,2013-11-22 14:30:00,
2013-11-22 09:36:00,45.2,44.6,30.12,North,0,0.0,0.0,98,-99.99,,,-99.99,PWS SA v1.10,2013-11-22 14:36:00,
2013-11-22 09:42:00,45.5,45.0,30.12,North,0,0.0,0.0,98,-99.99,,,-99.99,PWS SA v1.10,2013-11-22 14:42:00,
2013-11-22 09:48:00,45.6,45.4,30.12,North,0,0.0,0.0,99,-99.99,,,-99.99,PWS SA v1.10,2013-11-22 14:48:00,
2013-11-22 09:54:00,45.7,45.4,30.12,North,0,0.0,0.0,99,-99.99,,,-99.99,PWS SA v1.10,2013-11-22 14:54:00,
2013-11-22 10:00:00,45.8,45.2,30.11,North,0,0.0,0.0,98,-99.99,,,-99.99,PWS SA v1.10,2013-11-22 15:00:00,
2013-11-22 10:06:00,45.7,45.5,30.11,North,0,0.0,0.0,98,-99.99,,,-99.99,PWS SA v1.10,2013-11-22 15:06:00,
2013-11-22 10:12:00,45.9,45.5,30.10,North,0,0.0,0.0,98,-99.99,,,-99.99,PWS SA v1.10,2013-11-22 15:12:00,
2013-11-22 10:18:00,46.2,45.8,30.10,North,0,0.0,0.0,98,-99.99,,,-99.99,PWS SA v1.10,2013-11-22 15:18:00,
2013-11-22 10:24:00,46.2,45.6,30.10,North,0,0.0,0.0,98,-99.99,,,-99.99,PWS SA v1.10,2013-11-22 15:24:00,
2013-11-22 10:30:00,46.1,45.5,30.10,North,0,0.0,0.0,98,-99.99,,,-99.99,PWS SA v1.10,2013-11-22 15:30:00,
2013-11-22 10:36:00,46.1,45.5,30.10,North,0,0.0,0.0,98,-99.99,,,-99.99,PWS SA v1.10,2013-11-22 15:36:00,
2013-11-22 10:42:00,46.2,45.7,30.09,North,0,0.0,0.0,98,-99.99,,,-99.99,PWS SA v1.10,2013-11-22 15:42:00,
2013-11-22 10:48:00,46.3,45.8,30.08,North,0,0.0,0.0,98,-99.99,,,-99.99,PWS SA v1.10,2013-11-22 15:48:00,
2013-11-22 10:54:00,46.5,46.0,30.08,North,0,0.0,0.0,98,-99.99,,,-99.99,PWS SA v1.10,2013-11-22 15:54:00,
2013-11-22 11:00:00,46.5,46.0,30.07,North,0,0.0,0.0,98,-99.99,,,-99.99,PWS SA v1.10,2013-11-22 16:00:00,
2013-11-22 11:06:00,46.5,46.0,30.07,North,0,0.0,0.0,98,-99.99,,,-99.99,PWS SA v1.10,2013-11-22 16:06:00,
2013-11-22 11:12:00,46.6,46.4,30.06,North,0,0.0,0.0,99,-99.99,,,-99.99,PWS SA v1.10,2013-11-22 16:12:00,
2013-11-22 11:18:00,46.5,46.2,30.05,North,0,0.0,0.0,99,-99.99,,,-99.99,PWS SA v1.10,2013-11-22 16:18:00,
2013-11-22 11:24:00,46.6,46.2,30.05,North,0,0.0,0.0,99,-99.99,,,-99.99,PWS SA v1.10,2013-11-22 16:24:00,
2013-11-22 11:30:00,46.6,46.3,30.05,North,0,0.0,0.0,99,-99.99,,,-99.99,PWS SA v1.10,2013-11-22 16:30:00,
2013-11-22 11:36:00,46.6,46.2,30.04,North,0,0.0,0.0,99,-99.99,,,-99.99,PWS SA v1.10,2013-11-22 16:36:00,
2013-11-22 11:42:00,46.7,46.4,30.03,North,0,0.0,0.0,99,-99.99,,,-99.99,PWS SA v1.10,2013-11-22 16:42:00,
2013-11-22 11:48:00,46.9,46.4,30.03,North,0,0.0,0.0,99,-99.99,,,-99.99,PWS SA v1.10,2013-11-22 16:48:00,
2013-11-22 11:54:00,46.9,46.2,30.03,North,0,0.0,0.0,98,-99.99,,,-99.99,PWS SA v1.10,2013-11-22 16:54:00,
2013-11-22 12:00:00,47.0,46.5,30.02,North,0,0.0,0.0,99,-99.99,,,-99.99,PWS SA v1.10,2013-11-22 17:00:00,
2013-11-22 12:06:00,47.1,46.6,30.02,North,0,0.0,0.0,98,-99.99,,,-99.99,PWS SA v1.10,2013-11-22 17:06:00,
2013-11-22 12:12:00,47.1,46.8,30.02,North,0,0.0,0.0,99,-99.99,,,-99.99,PWS SA v1.10,2013-11-22 17:12:00,
2013-11-22 12:18:00,47.1,46.7,30.02,North,0,0.0,0.0,99,-99.99,,,-99.99,PWS SA v1.10,2013-11-22 17:18:00,
2013-11-22 12:24:00,47.3,46.8,30.01,North,0,0.0,0.0,99,-99.99,,,-99.99,PWS SA v1.10,2013-11-22 17:24:00,
2013-11-22 12:30:00,47.4,46.9,30.01,North,0,0.0,0.0,98,-99.99,,,-99.99,PWS SA v1.10,2013-11-22 17:30:00,
2013-11-22 12:36:00,47.4,46.8,30.01,North,0,0.0,0.0,98,-99.99,,,-99.99,PWS SA v1.10,2013-11-22 17:36:00,
2013-11-22 12:42:00,47.6,47.4,30.00,North,0,0.0,0.0,98,-99.99,,,-99.99,PWS SA v1.10,2013-11-22 17:42:00,
2013-11-22 12:48:00,47.7,47.1,30.00,North,0,0.0,0.0,98,-99.99,,,-99.99,PWS SA v1.10,2013-11-22 17:48:00,
2013-11-22 12:54:00,47.7,47.1,30.00,North,0,0.0,0.0,98,-99.99,,,-99.99,PWS SA v1.10,2013-11-22 17:54:00,
2013-11-22 13:00:00,47.6,47.2,29.98,North,0,0.0,0.0,98,-99.99,,,-99.99,PWS SA v1.10,2013-11-22 18:00:00,
2013-11-22 13:06:00,47.7,47.2,29.98,North,0,0.0,0.0,98,-99.99,,,-99.99,PWS SA v1.10,2013-11-22 18:06:00,
2013-11-22 13:12:00,47.6,47.2,29.98,North,0,0.0,0.0,98,-99.99,,,-99.99,PWS SA v1.10,2013-11-22 18:12:00,
2013-11-22 13:18:00,47.9,47.3,29.97,North,0,0.0,0.0,98,-99.99,,,-99.99,PWS SA v1.10,2013-11-22 18:18:00,
2013-11-22 13:24:00,48.0,47.3,29.98,North,0,0.0,0.0,98,-99.99,,,-99.99,PWS SA v1.10,2013-11-22 18:24:00,
2013-11-22 13:30:00,47.9,47.4,29.97,North,0,0.0,0.0,98,-99.99,,,-99.99,PWS SA v1.10,2013-11-22 18:30:00,
2013-11-22 13:36:00,48.1,47.6,29.97,North,0,0.0,0.0,98,-99.99,,,-99.99,PWS SA v1.10,2013-11-22 18:36:00,
2013-11-22 13:42:00,48.3,47.7,29.96,North,0,0.0,0.0,98,-99.99,,,-99.99,PWS SA v1.10,2013-11-22 18:42:00,
2013-11-22 13:50:00,48.1,47.5,29.96,North,0,0.0,0.0,97,-99.99,,,-99.99,PWS SA v1.10,2013-11-22 18:50:00,
2013-11-22 13:56:00,48.1,47.3,29.96,North,0,0.0,0.0,97,-99.99,,,-99.99,PWS SA v1.10,2013-11-22 18:56:00,
2013-11-22 14:02:00,48.3,47.4,29.96,North,0,0.0,0.0,96,-99.99,,,-99.99,PWS SA v1.10,2013-11-22 19:02:00,
2013-11-22 14:08:00,48.4,47.7,29.96,North,0,0.0,0.0,97,-99.99,,,-99.99,PWS SA v1.10,2013-11-22 19:08:00,
2013-11-22 14:14:00,48.3,47.6,29.97,North,0,0.0,0.0,97,-99.99,,,-99.99,PWS SA v1.10,2013-11-22 19:14:00,
2013-11-22 14:20:00,48.3,47.6,29.96,North,0,0.0,0.0,96,-99.99,,,-99.99,PWS SA v1.10,2013-11-22 19:20:00,
2013-11-22 14:26:00,48.4,48.0,29.96,North,0,0.0,0.0,98,-99.99,,,-99.99,PWS SA v1.10,2013-11-22 19:26:00,
2013-11-22 14:32:00,48.5,47.7,29.94,North,0,0.0,0.0,97,-99.99,,,-99.99,PWS SA v1.10,2013-11-22 19:32:00,
2013-11-22 14:38:00,48.5,47.9,29.95,North,0,0.0,0.0,97,-99.99,,,-99.99,PWS SA v1.10,2013-11-22 19:38:00,
2013-11-22 14:44:00,48.3,47.8,29.95,North,0,0.0,0.0,97,-99.99,,,-99.99,PWS SA v1.10,2013-11-22 19:44:00,
2013-11-22 14:50:00,48.5,47.7,29.95,North,0,0.0,0.0,97,-99.99,,,-99.99,PWS SA v1.10,2013-11-22 19:50:00,
2013-11-22 14:56:00,48.5,47.8,29.95,North,0,0.0,0.0,97,-99.99,,,-99.99,PWS SA v1.10,2013-11-22 19:56:00,
2013-11-22 15:02:00,48.5,47.7,29.94,North,0,0.0,0.0,97,-99.99,,,-99.99,PWS SA v1.10,2013-11-22 20:02:00,
2013-11-22 15:08:00,48.5,48.0,29.94,North,0,0.0,0.0,98,-99.99,,,-99.99,PWS SA v1.10,2013-11-22 20:08:00,
2013-11-22 15:14:00,48.6,48.1,29.94,North,0,0.0,0.0,98,-99.99,,,-99.99,PWS SA v1.10,2013-11-22 20:14:00,
2013-11-22 15:20:00,48.3,47.7,29.94,North,0,0.0,0.0,98,-99.99,,,-99.99,PWS SA v1.10,2013-11-22 20:20:00,
2013-11-22 15:26:00,48.5,48.0,29.94,North,0,0.0,0.0,97,-99.99,,,-99.99,PWS SA v1.10,2013-11-22 20:26:00,
2013-11-22 15:32:00,48.3,47.7,29.94,North,0,0.0,0.0,97,-99.99,,,-99.99,PWS SA v1.10,2013-11-22 20:32:00,
2013-11-22 15:38:00,48.3,47.7,29.94,North,0,0.0,0.0,97,-99.99,,,-99.99,PWS SA v1.10,2013-11-22 20:38:00,
2013-11-22 15:44:00,48.3,47.7,29.94,North,0,0.0,0.0,98,-99.99,,,-99.99,PWS SA v1.10,2013-11-22 20:44:00,
2013-11-22 15:50:00,48.2,47.8,29.94,North,0,0.0,0.0,98,-99.99,,,-99.99,PWS SA v1.10,2013-11-22 20:50:00,
2013-11-22 15:56:00,48.1,47.8,29.94,North,0,0.0,0.0,98,-99.99,,,-99.99,PWS SA v1.10,2013-11-22 20:56:00,
2013-11-22 16:02:00,48.0,47.5,29.94,North,0,0.0,0.0,98,-99.99,,,-99.99,PWS SA v1.10,2013-11-22 21:02:00,
2013-11-22 16:08:00,47.9,47.5,29.93,North,0,0.0,0.0,98,-99.99,,,-99.99,PWS SA v1.10,2013-11-22 21:08:00,
2013-11-22 16:14:00,47.9,47.5,29.93,WSW,246,1.7,1.7,98,-99.99,,,-99.99,PWS SA v1.10,2013-11-22 21:14:00,
2013-11-22 16:20:00,47.7,47.5,29.92,North,0,0.0,1.0,98,-99.99,,,-99.99,PWS SA v1.10,2013-11-22 21:20:00,
2013-11-22 16:26:00,47.7,47.1,29.92,North,0,0.0,0.0,98,-99.99,,,-99.99,PWS SA v1.10,2013-11-22 21:26:00,
2013-11-22 16:32:00,47.5,47.0,29.91,North,0,0.0,0.0,98,-99.99,,,-99.99,PWS SA v1.10,2013-11-22 21:32:00,
2013-11-22 16:38:00,47.4,46.8,29.92,North,0,0.0,0.0,98,-99.99,,,-99.99,PWS SA v1.10,2013-11-22 21:38:00,
2013-11-22 16:44:00,47.2,46.7,29.93,North,0,0.0,0.0,98,-99.99,,,-99.99,PWS SA v1.10,2013-11-22 21:44:00,
2013-11-22 16:50:00,47.3,47.2,29.92,North,0,0.0,0.0,99,-99.99,,,-99.99,PWS SA v1.10,2013-11-22 21:50:00,
2013-11-22 16:56:00,47.3,47.2,29.91,North,0,0.0,0.0,99,-99.99,,,-99.99,PWS SA v1.10,2013-11-22 21:56:00,
2013-11-22 17:02:00,47.3,47.1,29.92,North,0,0.0,0.0,99,-99.99,,,-99.99,PWS SA v1.10,2013-11-22 22:02:00,
2013-11-22 17:08:00,47.3,47.0,29.92,North,0,0.0,0.0,100,-99.99,,,-99.99,PWS SA v1.10,2013-11-22 22:08:00,
2013-11-22 17:14:00,47.0,46.8,29.92,North,0,0.0,0.0,99,-99.99,,,-99.99,PWS SA v1.10,2013-11-22 22:14:00,
2013-11-22 17:20:00,47.0,47.0,29.91,North,0,0.0,0.0,99,-99.99,,,-99.99,PWS SA v1.10,2013-11-22 22:20:00,
2013-11-22 17:26:00,47.1,47.0,29.91,North,0,0.0,0.0,99,-99.99,,,-99.99,PWS SA v1.10,2013-11-22 22:26:00,
2013-11-22 17:32:00,47.1,46.8,29.91,North,0,0.0,0.0,99,-99.99,,,-99.99,PWS SA v1.10,2013-11-22 22:32:00,
2013-11-22 17:38:00,47.0,46.5,29.90,North,0,0.0,0.0,99,-99.99,,,-99.99,PWS SA v1.10,2013-11-22 22:38:00,
2013-11-22 17:44:00,46.9,46.9,29.90,North,0,0.0,3.0,99,-99.99,,,-99.99,PWS SA v1.10,2013-11-22 22:44:00,
2013-11-22 17:50:00,46.9,46.8,29.89,North,0,0.0,3.0,99,-99.99,,,-99.99,PWS SA v1.10,2013-11-22 22:50:00,
2013-11-22 17:56:00,46.6,46.4,29.90,North,0,0.0,0.0,98,-99.99,,,-99.99,PWS SA v1.10,2013-11-22 22:56:00,
2013-11-22 18:02:00,46.5,46.3,29.89,North,0,0.0,0.0,99,-99.99,,,-99.99,PWS SA v1.10,2013-11-22 23:02:00,
2013-11-22 18:08:00,46.4,46.1,29.89,North,0,0.0,0.0,99,-99.99,,,-99.99,PWS SA v1.10,2013-11-22 23:08:00,
2013-11-22 18:14:00,46.5,46.4,29.90,North,0,0.0,0.0,100,-99.99,,,-99.99,PWS SA v1.10,2013-11-22 23:14:00,
2013-11-22 18:20:00,46.5,46.5,29.90,North,0,0.0,0.0,100,-99.99,,,-99.99,PWS SA v1.10,2013-11-22 23:20:00,
2013-11-22 18:26:00,46.5,46.5,29.89,North,0,0.0,0.0,100,-99.99,,,-99.99,PWS SA v1.10,2013-11-22 23:26:00,
2013-11-22 18:32:00,46.6,46.5,29.90,North,0,0.0,0.0,99,-99.99,,,-99.99,PWS SA v1.10,2013-11-22 23:32:00,
2013-11-22 18:38:00,46.6,46.7,29.89,North,0,0.0,0.0,99,-99.99,,,-99.99,PWS SA v1.10,2013-11-22 23:38:00,
2013-11-22 18:44:00,46.6,46.5,29.89,North,0,0.0,0.0,99,-99.99,,,-99.99,PWS SA v1.10,2013-11-22 23:44:00,
2013-11-22 18:50:00,46.6,46.5,29.89,North,0,0.0,0.0,99,-99.99,,,-99.99,PWS SA v1.10,2013-11-22 23:50:00,
2013-11-22 18:56:00,46.7,46.7,29.88,North,0,0.0,0.0,99,-99.99,,,-99.99,PWS SA v1.10,2013-11-22 23:56:00,
2013-11-22 19:02:00,46.6,46.5,29.89,North,0,0.0,0.0,100,-99.99,,,-99.99,PWS SA v1.10,2013-11-23 00:02:00,
2013-11-22 19:08:00,46.6,46.4,29.88,North,0,0.0,0.0,100,-99.99,,,-99.99,PWS SA v1.10,2013-11-23 00:08:00,
2013-11-22 19:14:00,46.6,46.5,29.88,North,0,0.0,0.0,100,-99.99,,,-99.99,PWS SA v1.10,2013-11-23 00:14:00,
2013-11-22 19:20:00,46.6,46.6,29.88,North,0,0.0,0.0,100,-99.99,,,-99.99,PWS SA v1.10,2013-11-23 00:20:00,
2013-11-22 19:26:00,46.5,46.7,29.88,North,0,0.0,0.0,100,-99.99,,,-99.99,PWS SA v1.10,2013-11-23 00:26:00,
2013-11-22 19:32:00,46.6,46.6,29.88,North,0,0.0,0.0,100,-99.99,,,-99.99,PWS SA v1.10,2013-11-23 00:32:00,
2013-11-22 19:38:00,46.5,46.7,29.87,North,0,0.0,0.0,100,-99.99,,,-99.99,PWS SA v1.10,2013-11-23 00:38:00,
2013-11-22 19:44:00,46.6,46.5,29.88,North,0,0.0,0.0,99,-99.99,,,-99.99,PWS SA v1.10,2013-11-23 00:44:00,
2013-11-22 19:50:00,46.5,46.5,29.87,North,0,0.0,0.0,99,-99.99,,,-99.99,PWS SA v1.10,2013-11-23 00:50:00,
2013-11-22 19:56:00,46.6,46.8,29.87,North,0,0.0,0.0,99,-99.99,,,-99.99,PWS SA v1.10,2013-11-23 00:56:00,
2013-11-22 20:02:00,46.7,46.7,29.87,North,0,0.0,0.0,99,-99.99,,,-99.99,PWS SA v1.10,2013-11-23 01:02:00,
2013-11-22 20:08:00,46.7,46.7,29.86,North,0,0.0,0.0,100,-99.99,,,-99.99,PWS SA v1.10,2013-11-23 01:08:00,
2013-11-22 20:14:00,46.7,46.6,29.86,North,0,0.0,0.0,100,-99.99,,,-99.99,PWS SA v1.10,2013-11-23 01:14:00,
2013-11-22 20:20:00,46.6,46.7,29.85,North,0,0.0,0.0,100,-99.99,,,-99.99,PWS SA v1.10,2013-11-23 01:20:00,
2013-11-22 20:26:00,46.5,46.3,29.85,North,0,0.0,0.0,99,-99.99,,,-99.99,PWS SA v1.10,2013-11-23 01:26:00,
2013-11-22 20:32:00,46.4,46.5,29.85,North,0,0.0,0.0,99,-99.99,,,-99.99,PWS SA v1.10,2013-11-23 01:32:00,
2013-11-22 20:38:00,46.4,46.6,29.85,North,0,0.0,0.0,99,-99.99,,,-99.99,PWS SA v1.10,2013-11-23 01:38:00,
2013-11-22 20:44:00,46.5,46.6,29.84,North,0,0.0,0.0,99,-99.99,,,-99.99,PWS SA v1.10,2013-11-23 01:44:00,
2013-11-22 20:50:00,46.3,46.3,29.85,North,0,0.0,0.0,99,-99.99,,,-99.99,PWS SA v1.10,2013-11-23 01:50:00,
2013-11-22 20:56:00,46.4,46.6,29.85,North,0,0.0,0.0,100,-99.99,,,-99.99,PWS SA v1.10,2013-11-23 01:56:00,
2013-11-22 21:02:00,46.5,46.6,29.84,North,0,0.0,0.0,100,-99.99,,,-99.99,PWS SA v1.10,2013-11-23 02:02:00,
2013-11-22 21:08:00,46.4,46.4,29.84,North,0,0.0,0.0,100,-99.99,,,-99.99,PWS SA v1.10,2013-11-23 02:08:00,
2013-11-22 21:14:00,46.5,46.5,29.83,North,0,0.0,0.0,100,-99.99,,,-99.99,PWS SA v1.10,2013-11-23 02:14:00,
2013-11-22 21:22:00,46.4,46.3,29.83,North,0,0.0,0.0,100,-99.99,,,-99.99,PWS SA v1.10,2013-11-23 02:22:00,
2013-11-22 21:28:00,46.4,46.4,29.83,North,0,0.0,0.0,100,-99.99,,,-99.99,PWS SA v1.10,2013-11-23 02:28:00,
2013-11-22 21:34:00,46.3,46.5,29.83,North,0,0.0,0.0,100,-99.99,,,-99.99,PWS SA v1.10,2013-11-23 02:34:00,
2013-11-22 21:40:00,46.2,46.3,29.83,North,0,0.0,0.0,100,-99.99,,,-99.99,PWS SA v1.10,2013-11-23 02:40:00,
2013-11-22 21:46:00,46.2,46.3,29.82,North,0,0.0,0.0,100,-99.99,,,-99.99,PWS SA v1.10,2013-11-23 02:46:00,
2013-11-22 21:52:00,46.2,46.1,29.82,North,0,0.0,0.0,100,-99.99,,,-99.99,PWS SA v1.10,2013-11-23 02:52:00,
2013-11-22 21:58:00,46.2,46.3,29.82,North,0,0.0,0.0,100,-99.99,,,-99.99,PWS SA v1.10,2013-11-23 02:58:00,
2013-11-22 22:04:00,46.2,46.1,29.82,North,0,0.0,0.0,100,-99.99,,,-99.99,PWS SA v1.10,2013-11-23 03:04:00,
2013-11-22 22:10:00,46.1,46.3,29.81,North,0,0.0,0.0,100,-99.99,,,-99.99,PWS SA v1.10,2013-11-23 03:10:00,
2013-11-22 22:16:00,46.2,46.1,29.81,North,0,0.0,0.0,100,-99.99,,,-99.99,PWS SA v1.10,2013-11-23 03:16:00,
2013-11-22 22:22:00,46.2,46.2,29.81,North,0,0.0,0.0,100,-99.99,,,-99.99,PWS SA v1.10,2013-11-23 03:22:00,
2013-11-22 22:28:00,46.2,46.4,29.80,North,0,0.0,0.0,100,-99.99,,,-99.99,PWS SA v1.10,2013-11-23 03:28:00,
2013-11-22 22:34:00,46.2,46.2,29.81,North,0,0.0,0.0,100,-99.99,,,-99.99,PWS SA v1.10,2013-11-23 03:34:00,
2013-11-22 22:40:00,46.4,46.5,29.80,North,0,0.0,3.0,100,-99.99,,,-99.99,PWS SA v1.10,2013-11-23 03:40:00,
2013-11-22 22:46:00,46.5,46.5,29.80,North,0,0.0,3.0,100,-99.99,,,-99.99,PWS SA v1.10,2013-11-23 03:46:00,
2013-11-22 22:52:00,46.6,46.5,29.80,North,0,0.0,5.0,100,-99.99,,,-99.99,PWS SA v1.10,2013-11-23 03:52:00,
2013-11-22 22:58:00,46.9,46.9,29.80,North,0,0.0,5.0,100,-99.99,,,-99.99,PWS SA v1.10,2013-11-23 03:58:00,
2013-11-22 23:04:00,47.0,47.1,29.80,North,0,0.0,1.0,100,-99.99,,,-99.99,PWS SA v1.10,2013-11-23 04:04:00,
2013-11-22 23:10:00,47.0,47.1,29.79,North,0,0.0,0.0,100,-99.99,,,-99.99,PWS SA v1.10,2013-11-23 04:10:00,
2013-11-22 23:16:00,47.2,47.2,29.79,North,0,0.0,0.0,100,-99.99,,,-99.99,PWS SA v1.10,2013-11-23 04:16:00,
2013-11-22 23:22:00,47.1,47.2,29.79,North,0,0.0,3.0,100,-99.99,,,-99.99,PWS SA v1.10,2013-11-23 04:22:00,
2013-11-22 23:28:00,47.0,47.1,29.78,North,0,0.0,3.0,100,-99.99,,,-99.99,PWS SA v1.10,2013-11-23 04:28:00,
2013-11-22 23:34:00,47.0,47.1,29.78,North,0,0.0,0.0,100,-99.99,,,-99.99,PWS SA v1.10,2013-11-23 04:34:00,
2013-11-22 23:40:00,47.0,47.1,29.78,North,0,0.0,0.0,100,-99.99,,,-99.99,PWS SA v1.10,2013-11-23 04:40:00,
2013-11-22 23:46:00,47.0,47.1,29.78,North,0,0.0,0.0,100,-99.99,,,-99.99,PWS SA v1.10,2013-11-23 04:46:00,
2013-11-22 23:52:00,47.0,47.1,29.79,WSW,244,5.1,5.1,100,-99.99,,,-99.99,PWS SA v1.10,2013-11-23 04:52:00,
2013-11-22 23:58:00,47.0,46.9,29.78,North,0,0.0,5.0,100,-99.99,,,-99.99,PWS SA v1.10,2013-11-23 04:58:00,